• Join FlightAware (Why Join?)
  • Login
  • US Flag 
08:13AM EDT


 

Airport Tracker/Info


-or-


 

Live Flight TrackerFlight Track Log ✈ AVN20 ✈ 15-Sep-2013 ✈ NVSS / SON - YBBN / BNE

Flight Track Log - Related Links

Times and Time Zones

All times are in EDT time to prevent confusion due to time zone crossing. See the AVN20 flight status page for this flight to view local times or setup timezone preferences in your user account.

Time Position Orientation Groundspeed Altitude Reporting Facility
EDT Latitude Longitude Course Direction KTS MPH feet Rate Location/Type
02:45AM -15.8584 166.9049 221° Southwest  Level FlightAware Approximate
02:46AM -15.9179 166.8518 221° Southwest  Level FlightAware Approximate
02:47AM -15.9774 166.7987 221° Southwest  Level FlightAware Approximate
02:48AM -16.0368 166.7456 221° Southwest  Level FlightAware Approximate
02:49AM -16.0963 166.6925 221° Southwest  Level FlightAware Approximate
02:50AM -16.1557 166.6393 221° Southwest  Level FlightAware Approximate
02:51AM -16.2151 166.5860 221° Southwest  Level FlightAware Approximate
02:52AM -16.2745 166.5328 221° Southwest  Level FlightAware Approximate
02:53AM -16.3339 166.4795 221° Southwest  Level FlightAware Approximate
02:54AM -16.3933 166.4262 221° Southwest  Level FlightAware Approximate
02:55AM -16.4527 166.3728 221° Southwest  Level FlightAware Approximate
02:56AM -16.5120 166.3195 221° Southwest  Level FlightAware Approximate
02:57AM -16.5713 166.2661 221° Southwest  Level FlightAware Approximate
02:58AM -16.6307 166.2126 221° Southwest  Level FlightAware Approximate
02:59AM -16.6900 166.1591 221° Southwest  Level FlightAware Approximate
03:00AM -16.7493 166.1056 221° Southwest  Level FlightAware Approximate
03:01AM -16.8085 166.0521 221° Southwest  Level FlightAware Approximate
03:02AM -16.8678 165.9985 221° Southwest  Level FlightAware Approximate
03:03AM -16.9271 165.9449 221° Southwest  Level FlightAware Approximate
03:04AM -16.9863 165.8912 221° Southwest  Level FlightAware Approximate
03:05AM -17.0455 165.8376 221° Southwest  Level FlightAware Approximate
03:06AM -17.1047 165.7838 221° Southwest  Level FlightAware Approximate
03:07AM -17.1639 165.7301 221° Southwest  Level FlightAware Approximate
03:08AM -17.2231 165.6763 221° Southwest  Level FlightAware Approximate
03:09AM -17.2823 165.6225 221° Southwest  Level FlightAware Approximate
03:10AM -17.3415 165.5686 221° Southwest  Level FlightAware Approximate
03:11AM -17.4006 165.5147 221° Southwest  Level FlightAware Approximate
03:12AM -17.4597 165.4608 221° Southwest  Level FlightAware Approximate
03:13AM -17.5188 165.4069 221° Southwest  Level FlightAware Approximate
03:14AM -17.5779 165.3529 221° Southwest  Level FlightAware Approximate
03:15AM -17.6370 165.2988 221° Southwest  Level FlightAware Approximate
03:16AM -17.6961 165.2448 221° Southwest  Level FlightAware Approximate
03:17AM -17.7551 165.1907 221° Southwest  Level FlightAware Approximate
03:18AM -17.8142 165.1365 221° Southwest  Level FlightAware Approximate
03:19AM -17.8732 165.0824 221° Southwest  Level FlightAware Approximate
03:20AM -17.9322 165.0282 221° Southwest  Level FlightAware Approximate
03:21AM -17.9912 164.9739 221° Southwest  Level FlightAware Approximate
03:22AM -18.0502 164.9196 221° Southwest  Level FlightAware Approximate
03:23AM -18.1091 164.8653 221° Southwest  Level FlightAware Approximate
03:24AM -18.1681 164.8110 221° Southwest  Level FlightAware Approximate
03:25AM -18.2270 164.7566 221° Southwest  Level FlightAware Approximate
03:26AM -18.2859 164.7021 221° Southwest  Level FlightAware Approximate
03:27AM -18.3448 164.6477 221° Southwest  Level FlightAware Approximate
03:28AM -18.4037 164.5932 221° Southwest  Level FlightAware Approximate
03:29AM -18.4626 164.5387 221° Southwest  Level FlightAware Approximate
03:29AM -20.1209 162.9815 226° Southwest 38,000  Level Aus ATC (Calculated)
03:31AM -20.2192 162.8877 222° Southwest  Level FlightAware Approximate
03:32AM -20.2704 162.8387 222° Southwest  Level FlightAware Approximate
03:32AM -20.3981 162.7164 227° Southwest 38,000  Level Aus ATC (Calculated)
03:33AM -20.5002 162.6185 227° Southwest 38,000  Level Aus ATC (Calculated)
03:34AM -20.4962 162.6223 222° Southwest  Level FlightAware Approximate
03:35AM -20.6017 162.5209 222° Southwest  Level FlightAware Approximate
03:36AM -20.6461 162.4646 236° Southwest  Level Estimated
03:36AM -20.7473 162.3807 227° Southwest 38,000  Level Aus ATC (Calculated)
03:38AM -20.8382 162.2717 228° Southwest  Level FlightAware Approximate
03:39AM -20.8841 162.2167 228° Southwest  Level FlightAware Approximate
03:39AM -21.0202 162.1167 227° Southwest 38,000  Level Aus ATC (Calculated)
03:40AM -21.0652 162.0620 229° Southwest  Level FlightAware Approximate
03:41AM -21.1102 162.0072 229° Southwest  Level FlightAware Approximate
03:42AM -21.1551 161.9524 229° Southwest  Level FlightAware Approximate
03:43AM -21.2001 161.8976 229° Southwest  Level FlightAware Approximate
03:44AM -21.2450 161.8427 229° Southwest  Level FlightAware Approximate
03:45AM -21.2899 161.7878 229° Southwest  Level FlightAware Approximate
03:46AM -21.3348 161.7329 229° Southwest  Level FlightAware Approximate
03:47AM -21.3797 161.6779 229° Southwest  Level FlightAware Approximate
03:48AM -21.4245 161.6229 229° Southwest  Level FlightAware Approximate
03:49AM -21.4694 161.5679 229° Southwest  Level FlightAware Approximate
03:50AM -21.5142 161.5128 229° Southwest  Level FlightAware Approximate
03:51AM -21.5590 161.4577 229° Southwest  Level FlightAware Approximate
03:52AM -21.6038 161.4026 229° Southwest  Level FlightAware Approximate
03:53AM -21.6485 161.3474 229° Southwest  Level FlightAware Approximate
03:54AM -21.6933 161.2922 229° Southwest  Level FlightAware Approximate
03:55AM -21.7380 161.2370 229° Southwest  Level FlightAware Approximate
03:56AM -21.7827 161.1817 229° Southwest  Level FlightAware Approximate
03:57AM -21.8274 161.1264 229° Southwest  Level FlightAware Approximate
03:58AM -21.8721 161.0711 229° Southwest  Level FlightAware Approximate
03:59AM -21.9167 161.0157 229° Southwest  Level FlightAware Approximate
04:00AM -21.9614 160.9603 229° Southwest  Level FlightAware Approximate
04:01AM -22.0060 160.9048 229° Southwest  Level FlightAware Approximate
04:02AM -22.0506 160.8494 229° Southwest  Level FlightAware Approximate
04:03AM -22.0952 160.7939 229° Southwest  Level FlightAware Approximate
04:04AM -22.1397 160.7383 229° Southwest  Level FlightAware Approximate
04:05AM -22.1843 160.6827 229° Southwest  Level FlightAware Approximate
04:06AM -22.2288 160.6271 229° Southwest  Level FlightAware Approximate
04:07AM -22.2733 160.5715 229° Southwest  Level FlightAware Approximate
04:08AM -22.3178 160.5158 229° Southwest  Level FlightAware Approximate
04:09AM -22.3623 160.4600 229° Southwest  Level FlightAware Approximate
04:10AM -22.4067 160.4043 229° Southwest  Level FlightAware Approximate
04:11AM -22.4512 160.3485 229° Southwest  Level FlightAware Approximate
04:12AM -22.4956 160.2926 229° Southwest  Level FlightAware Approximate
04:13AM -22.5400 160.2368 229° Southwest  Level FlightAware Approximate
04:14AM -22.5843 160.1809 229° Southwest  Level FlightAware Approximate
04:15AM -22.6287 160.1249 229° Southwest  Level FlightAware Approximate
04:16AM -22.6730 160.0689 229° Southwest  Level FlightAware Approximate
04:17AM -22.7173 160.0129 229° Southwest  Level FlightAware Approximate
04:18AM -22.7616 159.9569 229° Southwest  Level FlightAware Approximate
04:19AM -22.8059 159.9008 229° Southwest  Level FlightAware Approximate
04:20AM -22.8502 159.8447 229° Southwest  Level FlightAware Approximate
04:20AM -24.4906 158.1269 236° Southwest 40,000  Level Aus ATC (Calculated)
04:21AM -24.5317 158.0592 236° Southwest  Level FlightAware Approximate
04:22AM -24.5728 157.9916 236° Southwest  Level FlightAware Approximate
04:23AM -24.6138 157.9238 236° Southwest  Level FlightAware Approximate
04:23AM -24.6861 157.8043 237° Southwest 40,000  Level Aus ATC (Calculated)
04:23AM -24.7186 157.7505 237° Southwest 40,000 -120 Level Aus ATC (Calculated)
04:25AM -24.7745 157.6577 236° Southwest  Level FlightAware Approximate
04:26AM -24.8154 157.5897 236° Southwest  Level FlightAware Approximate
04:27AM -24.8563 157.5217 236° Southwest  Level FlightAware Approximate
04:28AM -24.8971 157.4537 237° Southwest  Level FlightAware Approximate
04:29AM -24.9379 157.3857 237° Southwest  Level FlightAware Approximate
04:30AM -24.9786 157.3175 237° Southwest  Level FlightAware Approximate
04:31AM -25.0194 157.2494 224° Southwest  Level Estimated
04:32AM -25.0688 157.1886 228° Southwest  Level FlightAware Approximate
04:32AM -25.3005 156.7762 56° Northeast 40,000  Level Aus ATC (Calculated)
04:33AM -25.3509 156.7163 227° Southwest  Level FlightAware Approximate
04:34AM -25.4013 156.6563 227° Southwest  Level FlightAware Approximate
04:35AM -25.4517 156.5963 227° Southwest  Level FlightAware Approximate
04:36AM -25.5020 156.5362 227° Southwest  Level FlightAware Approximate
04:37AM -25.5523 156.4761 227° Southwest  Level FlightAware Approximate
04:38AM -25.6026 156.4160 227° Southwest  Level FlightAware Approximate
04:39AM -25.6529 156.3557 227° Southwest  Level FlightAware Approximate
04:40AM -25.7032 156.2955 227° Southwest  Level FlightAware Approximate
04:41AM -25.7534 156.2352 227° Southwest  Level FlightAware Approximate
04:42AM -25.8036 156.1748 227° Southwest  Level FlightAware Approximate
04:42AM -26.1135 155.6331 53° Northeast 16,500  Level Aus ATC (Calculated)
04:44AM -26.1872 155.5520 225° Southwest  Level FlightAware Approximate
04:45AM -26.2399 155.4941 225° Southwest  Level FlightAware Approximate
04:45AM -25.0632 157.1679 225° Southwest 358 412 38,000  Level Aus ATC (RADAR)
04:46AM -25.0910 157.1209 237° Southwest 359 413 38,000  Level Aus ATC (RADAR)
04:46AM -25.1249 157.0672 235° Southwest 359 413 38,000  Level Aus ATC (RADAR)
04:47AM -25.1665 156.9967 237° Southwest 360 414 38,000  Level Aus ATC (RADAR)
04:47AM -25.1999 156.9424 236° Southwest 361 415 38,000  Level Aus ATC (RADAR)
04:48AM -25.2395 156.8701 239° Southwest 361 415 38,000  Level Aus ATC (RADAR)
04:49AM -25.2663 156.8330 231° Southwest 362 417 38,000  Level Aus ATC (RADAR)
04:49AM -25.3006 156.7807 234° Southwest 358 412 38,000  Level Aus ATC (RADAR)
04:50AM -25.3508 156.6939 237° Southwest 359 413 38,000  Level Aus ATC (RADAR)
04:51AM -25.3742 156.6552 236° Southwest 358 412 38,000  Level Aus ATC (RADAR)
04:51AM -25.4063 156.6006 237° Southwest 358 412 38,000  Level Aus ATC (RADAR)
04:52AM -25.4476 156.5303 237° Southwest 358 412 38,000  Level Aus ATC (RADAR)
04:52AM -25.4790 156.4753 238° Southwest 357 411 38,000  Level Aus ATC (RADAR)
04:53AM -25.5107 156.4207 237° Southwest 356 410 38,000 60 Level Aus ATC (RADAR)
04:54AM -25.5376 156.3738 238° Southwest 356 410 38,100 60 Climbing Aus ATC (RADAR)
04:54AM -25.5692 156.3193 237° Southwest 356 410 38,100  Level Aus ATC (RADAR)
04:55AM -25.6315 156.2095 238° Southwest 356 410 38,100  Level Aus ATC (RADAR)
04:55AM -25.6453 156.1862 237° Southwest 356 410 38,100  Level Aus ATC (RADAR)
04:56AM -25.6773 156.1324 237° Southwest 355 409 38,100  Level Aus ATC (RADAR)
04:57AM -25.7133 156.0714 237° Southwest 353 406 38,100  Level Aus ATC (RADAR)
04:57AM -25.7459 156.0294 229° Southwest 357 411 38,100  Level Aus ATC (RADAR)
04:58AM -25.7897 155.9858 222° Southwest 358 412 38,100  Level Aus ATC (RADAR)
04:59AM -25.8441 155.9278 224° Southwest 359 413 38,100  Level Aus ATC (RADAR)
04:59AM -25.8861 155.8822 224° Southwest 360 414 38,100  Level Aus ATC (RADAR)
05:00AM -25.9579 155.8046 224° Southwest 359 413 38,100  Level Aus ATC (RADAR)
05:01AM -25.9875 155.7715 225° Southwest 360 414 38,100  Level Aus ATC (RADAR)
05:01AM -26.0291 155.7259 225° Southwest 359 413 38,100  Level Aus ATC (RADAR)
05:02AM -26.0770 155.6740 224° Southwest 359 413 38,100  Level Aus ATC (RADAR)
05:02AM -26.1119 155.6336 226° Southwest 360 414 38,100  Level Aus ATC (RADAR)
05:03AM -26.1660 155.5747 224° Southwest 361 415 38,100  Level Aus ATC (RADAR)
05:04AM -26.2017 155.5352 225° Southwest 360 414 38,100  Level Aus ATC (RADAR)
05:04AM -26.2377 155.4956 225° Southwest 361 415 38,100  Level Aus ATC (RADAR)
05:05AM -26.3096 155.4159 225° Southwest 363 418 38,100  Level Aus ATC (RADAR)
05:05AM -26.3341 155.3898 224° Southwest 363 418 38,100  Level Aus ATC (RADAR)
05:06AM -26.3758 155.3432 225° Southwest 363 418 38,100  Level Aus ATC (RADAR)
05:07AM -26.4242 155.2900 225° Southwest 364 419 38,100  Level Aus ATC (RADAR)
05:07AM -26.4661 155.2434 225° Southwest 363 418 38,100  Level Aus ATC (RADAR)
05:08AM -26.5200 155.1832 225° Southwest 365 420 38,100  Level Aus ATC (RADAR)
05:08AM -26.5504 155.1501 224° Southwest 364 419 38,100 -180 Level Aus ATC (RADAR)
05:10AM -26.6876 154.9966 225° Southwest 363 418 37,700 -360 Descending Aus ATC (RADAR)
05:11AM -26.7290 154.9499 225° Southwest 363 418 37,200 -960 Descending Aus ATC (RADAR)
05:11AM -26.7470 154.9298 225° Southwest 363 418 36,900 -1,020 Descending Aus ATC (RADAR)
05:12AM -26.7949 154.8769 225° Southwest 364 419 36,300 -1,020 Descending Aus ATC (RADAR)
05:13AM -26.8505 154.8167 224° Southwest 372 428 35,500 -1,020 Descending Aus ATC (RADAR)
05:13AM -26.8934 154.7691 225° Southwest 373 429 35,000 -960 Descending Aus ATC (RADAR)
05:14AM -26.9544 154.6987 226° Southwest 378 435 34,200 -960 Descending Aus ATC (RADAR)
05:14AM -26.9854 154.6636 225° Southwest 380 437 33,800 -1,020 Descending Aus ATC (RADAR)
05:15AM -27.0361 154.6078 224° Southwest 382 440 33,100 -1,680 Descending Aus ATC (RADAR)
05:16AM -27.0920 154.5444 225° Southwest 379 436 31,500 -2,280 Descending Aus ATC (RADAR)
05:16AM -27.1282 154.5026 226° Southwest 376 433 30,300 -2,340 Descending Aus ATC (RADAR)
05:17AM -27.1709 154.4546 225° Southwest 373 429 29,000 -2,280 Descending Aus ATC (RADAR)
05:18AM -27.2197 154.3997 225° Southwest 373 429 27,500 -2,280 Descending Aus ATC (RADAR)
05:18AM -27.2618 154.3528 225° Southwest 366 421 26,200 -2,220 Descending Aus ATC (RADAR)
05:19AM -27.3196 154.2864 226° Southwest 356 410 24,400 -2,160 Descending Aus ATC (RADAR)
05:19AM -27.3479 154.2540 225° Southwest 351 404 23,500 -2,160 Descending Aus ATC (RADAR)
05:20AM -27.3924 154.2037 225° Southwest 341 392 22,100 -2,100 Descending Aus ATC (RADAR)
05:21AM -27.4414 154.1492 225° Southwest 330 380 20,600 -2,100 Descending Aus ATC (RADAR)
05:21AM -27.4678 154.1194 225° Southwest 326 375 19,700 -1,980 Descending Aus ATC (RADAR)
05:22AM -27.5087 154.0719 226° Southwest 317 365 18,500 -2,040 Descending Aus ATC (RADAR)
05:22AM -27.5134 154.0150 265° West 314 361 17,200 -2,220 Descending Aus ATC (RADAR)
05:23AM -27.5027 153.9561 282° West 324 373 16,000 -2,100 Descending Aus ATC (RADAR)
05:24AM -27.4885 153.8720 281° West 327 376 14,300 -2,100 Descending Aus ATC (RADAR)
05:24AM -27.4829 153.8383 281° West 327 376 13,600 -2,100 Descending Aus ATC (RADAR)
05:25AM -27.4720 153.7719 280° West 323 372 12,200 -2,040 Descending Aus ATC (RADAR)
05:26AM -27.4575 153.6839 281° West 305 351 10,400 -1,680 Descending Aus ATC (RADAR)
05:26AM -27.4538 153.6608 280° West 299 344 10,300 -540 Descending Aus ATC (RADAR)
05:27AM -27.4432 153.5980 281° West 263 303 9,900 -960 Descending Aus ATC (RADAR)
05:27AM -27.4382 153.5666 280° West 249 287 9,200 -1,920 Descending Aus ATC (RADAR)
05:28AM -27.4303 153.5212 281° West 253 291 8,000 -1,380 Descending Aus ATC (RADAR)
05:29AM -27.4462 153.4659 252° West 247 284 7,400 -780 Descending Aus ATC (RADAR)
05:29AM -27.4641 153.4251 244° Southwest 248 285 7,000 -720 Descending Aus ATC (RADAR)
05:30AM -27.4828 153.3844 243° Southwest 250 288 6,600 -720 Descending Aus ATC (RADAR)
05:30AM -27.5009 153.3431 244° Southwest 252 290 6,200 -780 Descending Aus ATC (RADAR)
05:31AM -27.5238 153.2899 244° Southwest 251 289 5,600 -720 Descending Aus ATC (RADAR)
05:32AM -27.5446 153.2423 244° Southwest 226 260 5,200 -600 Descending Aus ATC (RADAR)
05:32AM -27.5603 153.2070 243° Southwest 215 247 4,800 -600 Descending Aus ATC (RADAR)
05:33AM -27.5809 153.1754 234° Southwest 218 251 4,500 -660 Descending Aus ATC (RADAR)
05:34AM -27.6044 153.1453 229° Southwest 221 254 4,100 -480 Descending Aus ATC (RADAR)
05:34AM -27.6243 153.1096 238° Southwest 229 264 4,000 -120 Descending Aus ATC (RADAR)
05:35AM -27.6289 153.0696 263° West 221 254 4,000  Level Aus ATC (RADAR)
05:35AM -27.6174 153.0328 289° West 217 250 4,000 -660 Level Aus ATC (RADAR)
05:36AM -27.5804 153.0191 342° North 205 236 3,200 -720 Descending Aus ATC (RADAR)
05:37AM -27.5452 153.0368 24° Northeast 188 216 3,000 -480 Descending Aus ATC (RADAR)
05:37AM -27.5270 153.0470 26° Northeast 180 207 2,700 -840 Descending Aus ATC (RADAR)
05:38AM -27.5022 153.0611 27° Northeast 172 198 2,200 -840 Descending Aus ATC (RADAR)
05:38AM -27.4725 153.0783 27° Northeast 158 182 1,600 -840 Descending Aus ATC (RADAR)
05:39AM -27.4522 153.0898 27° Northeast 142 163 1,100 -840 Descending Aus ATC (RADAR)
05:40AM -27.4286 153.1035 27° Northeast 142 163 600 -780 Descending Aus ATC (RADAR)
05:40AM -27.4136 153.1124 28° Northeast 145 167 300 -720 Descending Aus ATC (RADAR)